Home > Products > Valid Products > MTR

000
SAHW31 PHFO 220554
MTRITO
METAR PHTO 220553Z 02005KT 10SM FEW023 26/21 A3002 RMK AO2 SLP164
T02560211 10294 20256 53015 $




000
SAHW31 PHFO 220554
MTRITO
METAR PHTO 220553Z 02005KT 10SM FEW023 26/21 A3002 RMK AO2 SLP164
T02560211 10294 20256 53015 $





000
SAHW31 PHFO 220454
MTRITO
METAR PHTO 220453Z 02004KT 10SM SCT024 SCT049 26/21 A3000 RMK AO2
SLP158 T02610211 $





000
SAHW31 PHFO 220454
MTRITO
METAR PHTO 220453Z 02004KT 10SM SCT024 SCT049 26/21 A3000 RMK AO2
SLP158 T02610211 $




000
SAHW31 PHFO 220354
MTRITO
METAR PHTO 220353Z 03008KT 10SM SCT022 BKN034 BKN043 28/22 A2999 RMK
AO2 SLP153 T02780217 $





000
SAHW31 PHFO 220354
MTRITO
METAR PHTO 220353Z 03008KT 10SM SCT022 BKN034 BKN043 28/22 A2999 RMK
AO2 SLP153 T02780217 $




000
SAHW31 PHFO 220254
MTRITO
METAR PHTO 220253Z 36007KT 10SM CLR 28/22 A2998 RMK AO2 SLP150
T02830217 56009 $





000
SAHW31 PHFO 220254
MTRITO
METAR PHTO 220253Z 36007KT 10SM CLR 28/22 A2998 RMK AO2 SLP150
T02830217 56009 $




000
SAHW31 PHFO 220154
MTRITO
METAR PHTO 220153Z 04007KT 10SM FEW024 29/21 A2998 RMK AO2 SLP151
T02890211 $




000
SAHW31 PHFO 220154
MTRITO
METAR PHTO 220153Z 04007KT 10SM FEW024 29/21 A2998 RMK AO2 SLP151
T02890211 $





000
SAHW31 PHFO 220054
MTRITO
METAR PHTO 220053Z 07007KT 10SM FEW022 BKN044 BKN060 28/22 A2999 RMK
AO2 SLP155 T02830222 $




000
SAHW31 PHFO 220054
MTRITO
METAR PHTO 220053Z 07007KT 10SM FEW022 BKN044 BKN060 28/22 A2999 RMK
AO2 SLP155 T02830222 $





000
SAHW31 PHFO 212354
MTRITO
METAR PHTO 212353Z 05007KT 10SM SCT032 BKN039 OVC065 28/21 A3001 RMK
AO2 SLP159 60002 T02780206 10294 20233 56016 $




000
SAHW31 PHFO 212354
MTRITO
METAR PHTO 212353Z 05007KT 10SM SCT032 BKN039 OVC065 28/21 A3001 RMK
AO2 SLP159 60002 T02780206 10294 20233 56016 $





000
SAHW31 PHFO 212315
MTRITO
SPECI PHTO 212314Z 09009KT 10SM SCT021 SCT037 BKN044 27/22 A3001 RMK
AO2 T02720222 $




000
SAHW31 PHFO 212315
MTRITO
SPECI PHTO 212314Z 09009KT 10SM SCT021 SCT037 BKN044 27/22 A3001 RMK
AO2 T02720222 $





000
SAHW31 PHFO 212306
MTRITO
SPECI PHTO 212305Z 09013KT 10SM BKN021 BKN035 27/22 A3002 RMK AO2
T02720222 $





000
SAHW31 PHFO 212306
MTRITO
SPECI PHTO 212305Z 09013KT 10SM BKN021 BKN035 27/22 A3002 RMK AO2
T02720222 $




000
SAHW31 PHFO 212254
MTRITO
METAR PHTO 212253Z 01009KT 10SM FEW023 29/23 A3002 RMK AO2 SLP163
T02890228 $





000
SAHW31 PHFO 212254
MTRITO
METAR PHTO 212253Z 01009KT 10SM FEW023 29/23 A3002 RMK AO2 SLP163
T02890228 $




000
SAHW31 PHFO 212208
MTRITO
SPECI PHTO 212207Z 36007KT 10SM SCT023 28/22 A3003 RMK AO2 T02830222
$




000
SAHW31 PHFO 212208
MTRITO
SPECI PHTO 212207Z 36007KT 10SM SCT023 28/22 A3003 RMK AO2 T02830222
$





000
SAHW31 PHFO 212156
MTRLIH
METAR PHLI 212153Z 05010KT 10SM CLR 28/22 A3006 RMK AO2 SLP175
T02830222




000
SAHW31 PHFO 212156
MTRLIH
METAR PHLI 212153Z 05010KT 10SM CLR 28/22 A3006 RMK AO2 SLP175
T02830222





000
SAHW31 PHFO 212154
MTRITO
METAR PHTO 212153Z 36005KT 10SM BKN022 BKN050 28/22 A3004 RMK AO2
SLP170 T02780222 $




000
SAHW31 PHFO 212154
MTRITO
METAR PHTO 212153Z 36005KT 10SM BKN022 BKN050 28/22 A3004 RMK AO2
SLP170 T02780222 $





000
SAHW31 PHFO 212055
MTRITO
METAR PHTO 212053Z 04003KT 10SM FEW023 SCT043 OVC055 28/22 A3005 RMK
AO2 SLP175 60002 T02780217 58001 $





000
SAHW31 PHFO 212055
MTRITO
METAR PHTO 212053Z 04003KT 10SM FEW023 SCT043 OVC055 28/22 A3005 RMK
AO2 SLP175 60002 T02780217 58001 $




000
SAHW31 PHFO 212002
MTRITO
SPECI PHTO 212001Z 35004KT 10SM SCT022 SCT030 OVC055 27/22 A3006 RMK
AO2 T02720222 $




000
SAHW31 PHFO 212002
MTRITO
SPECI PHTO 212001Z 35004KT 10SM SCT022 SCT030 OVC055 27/22 A3006 RMK
AO2 T02720222 $





000
SAHW31 PHFO 211954
MTRITO
METAR PHTO 211953Z 02005KT 10SM BKN022 OVC055 27/22 A3006 RMK AO2
SLP177 T02720222 $




000
SAHW31 PHFO 211954
MTRITO
METAR PHTO 211953Z 02005KT 10SM BKN022 OVC055 27/22 A3006 RMK AO2
SLP177 T02720222 $





000
SAHW31 PHFO 211901
MTRITO
SPECI PHTO 211900Z 27005KT 10SM OVC049 25/23 A3006 RMK AO2 T02500228
$




000
SAHW31 PHFO 211901
MTRITO
SPECI PHTO 211900Z 27005KT 10SM OVC049 25/23 A3006 RMK AO2 T02500228
$





000
SAHW31 PHFO 211854
MTRITO
METAR PHTO 211853Z 25006KT 10SM BKN024 BKN034 OVC044 24/22 A3006 RMK
AO2 RAE19 SLP177 P0002 T02440222 $





000
SAHW31 PHFO 211754
MTRITO
METAR PHTO 211753Z 31004KT 4SM -RA BR SCT014 OVC023 23/22 A3005 RMK
AO2 RAB34 SLP176 P0000 60047 T02330217 10233 20222 51013 $





000
SAHW31 PHFO 211754
MTRITO
METAR PHTO 211753Z 31004KT 4SM -RA BR SCT014 OVC023 23/22 A3005 RMK
AO2 RAB34 SLP176 P0000 60047 T02330217 10233 20222 51013 $




000
SAHW31 PHFO 211751
MTRITO
SPECI PHTO 211749Z 30005KT 3SM -RA BR SCT014 OVC023 23/22 A3005 RMK
AO2 RAB34 P0000 $




000
SAHW31 PHFO 211751
MTRITO
SPECI PHTO 211749Z 30005KT 3SM -RA BR SCT014 OVC023 23/22 A3005 RMK
AO2 RAB34 P0000 $





000
SAHW31 PHFO 211654
MTRITO
METAR PHTO 211653Z 26008KT 10SM FEW021 BKN037 OVC049 22/21 A3003 RMK
AO2 RAE33 SLP167 P0007 T02220211 $





000
SAHW31 PHFO 211654
MTRITO
METAR PHTO 211653Z 26008KT 10SM FEW021 BKN037 OVC049 22/21 A3003 RMK
AO2 RAE33 SLP167 P0007 T02220211 $




000
SAHW31 PHFO 211627
MTRITO
SPECI PHTO 211626Z 26008KT 9SM -RA SCT015 BKN037 BKN045 22/21 A3002
RMK AO2 VIS LWR SW-NW P0006 T02220211 $




000
SAHW31 PHFO 211627
MTRITO
SPECI PHTO 211626Z 26008KT 9SM -RA SCT015 BKN037 BKN045 22/21 A3002
RMK AO2 VIS LWR SW-NW P0006 T02220211 $





000
SAHW31 PHFO 211555
MTRITO
METAR PHTO 211553Z 33005KT 3SM +RA BR OVC017 23/22 A3002 RMK AO2
RAE1455B30 SLP163 P0009 T02280217 $




000
SAHW31 PHFO 211555
MTRITO
METAR PHTO 211553Z 33005KT 3SM +RA BR OVC017 23/22 A3002 RMK AO2
RAE1455B30 SLP163 P0009 T02280217 $





000
SAHW31 PHFO 211527
MTRITO
SPECI PHTO 211526Z 27006KT 10SM BKN019 OVC050 23/22 A3000 RMK AO2
RAE1455 P0000 T02280217 $





000
SAHW31 PHFO 211527
MTRITO
SPECI PHTO 211526Z 27006KT 10SM BKN019 OVC050 23/22 A3000 RMK AO2
RAE1455 P0000 T02280217 $




000
SAHW31 PHFO 211459
MTRITO
SPECI PHTO 211457Z 29008KT 10SM SCT018 BKN043 OVC050 23/22 A2999 RMK
AO2 RAE55 P0000 T02280217 $




000
SAHW31 PHFO 211459
MTRITO
SPECI PHTO 211457Z 29008KT 10SM SCT018 BKN043 OVC050 23/22 A2999 RMK
AO2 RAE55 P0000 T02280217 $





000
SAHW31 PHFO 211454
MTRITO
METAR PHTO 211453Z 30007KT 10SM -RA FEW008 BKN013 OVC023 23/22 A2999
RMK AO2 SLP154 P0018 60031 T02280217 53002 $





000
SAHW31 PHFO 211454
MTRITO
METAR PHTO 211453Z 30007KT 10SM -RA FEW008 BKN013 OVC023 23/22 A2999
RMK AO2 SLP154 P0018 60031 T02280217 53002 $




000
SAHW31 PHFO 211429
MTRITO
SPECI PHTO 211428Z 30008KT 3SM +RA BR FEW008 BKN013 OVC020 23/22
A2998 RMK AO2 P0014 T02280217 $




000
SAHW31 PHFO 211429
MTRITO
SPECI PHTO 211428Z 30008KT 3SM +RA BR FEW008 BKN013 OVC020 23/22
A2998 RMK AO2 P0014 T02280217 $





000
SAHW31 PHFO 211420
MTRITO
SPECI PHTO 211418Z 30005KT 2 1/2SM +RA BR BKN008 OVC013 23/22 A2999
RMK AO2 P0008 T02280217 $





000
SAHW31 PHFO 211420
MTRITO
SPECI PHTO 211418Z 30005KT 2 1/2SM +RA BR BKN008 OVC013 23/22 A2999
RMK AO2 P0008 T02280217 $




000
SAHW31 PHFO 211354
MTRITO
METAR PHTO 211353Z 35004KT 8SM -RA FEW016 BKN029 OVC046 23/22 A2998
RMK AO2 SLP150 P0004 T02280222 $





000
SAHW31 PHFO 211354
MTRITO
METAR PHTO 211353Z 35004KT 8SM -RA FEW016 BKN029 OVC046 23/22 A2998
RMK AO2 SLP150 P0004 T02280222 $




000
SAHW31 PHFO 211254
MTRITO
METAR PHTO 211253Z 24005KT 4SM -RA BR FEW010 SCT018 OVC024 23/23
A2997 RMK AO2 SLP148 P0009 T02330228




000
SAHW31 PHFO 211254
MTRITO
METAR PHTO 211253Z 24005KT 4SM -RA BR FEW010 SCT018 OVC024 23/23
A2997 RMK AO2 SLP148 P0009 T02330228





000
SAHW31 PHFO 211245
MTRITO
SPECI PHTO 211244Z 22005KT 3SM RA BR FEW014 BKN020 OVC032 23/23
A2997 RMK AO2 P0006 T02330228





000
SAHW31 PHFO 211207
MTRITO
SPECI PHTO 211206Z 24004KT 5SM -RA BR FEW008 SCT014 OVC036 23/23
A2998 RMK AO2 P0000 T02330228





000
SAHW31 PHFO 211207
MTRITO
SPECI PHTO 211206Z 24004KT 5SM -RA BR FEW008 SCT014 OVC036 23/23
A2998 RMK AO2 P0000 T02330228




000
SAHW31 PHFO 211154
MTRITO
METAR PHTO 211153Z 22003KT 7SM -RA SCT010 BKN013 OVC028 23/23 A2998
RMK AO2 SLP151 P0005 60164 70166 T02330228 10250 20233 58007




000
SAHW31 PHFO 211154
MTRITO
METAR PHTO 211153Z 22003KT 7SM -RA SCT010 BKN013 OVC028 23/23 A2998
RMK AO2 SLP151 P0005 60164 70166 T02330228 10250 20233 58007





000
SAHW31 PHFO 211144
MTRITO
SPECI PHTO 211143Z 25005KT 8SM -RA SCT005 SCT010 OVC015 23/23 A2998
RMK AO2 P0005 T02330228




000
SAHW31 PHFO 211144
MTRITO
SPECI PHTO 211143Z 25005KT 8SM -RA SCT005 SCT010 OVC015 23/23 A2998
RMK AO2 P0005 T02330228





000
SAHW31 PHFO 211135
MTRITO
SPECI PHTO 211134Z 25005KT 6SM -RA BR SCT005 BKN012 OVC017 23/23
A2999 RMK AO2 P0005 T02330228




000
SAHW31 PHFO 211135
MTRITO
SPECI PHTO 211134Z 25005KT 6SM -RA BR SCT005 BKN012 OVC017 23/23
A2999 RMK AO2 P0005 T02330228





000
SAHW31 PHFO 211123
MTRITO
SPECI PHTO 211121Z 00000KT 3SM -RA BR SCT005 BKN008 OVC012 23/23
A2999 RMK AO2 P0003 T02330228




000
SAHW31 PHFO 211123
MTRITO
SPECI PHTO 211121Z 00000KT 3SM -RA BR SCT005 BKN008 OVC012 23/23
A2999 RMK AO2 P0003 T02330228





000
SAHW31 PHFO 211055
MTRITO
METAR PHTO 211053Z 23003KT 5SM -RA BR FEW004 BKN010 OVC013 23/23
A2999 RMK AO2 SLP155 P0013 T02330228




000
SAHW31 PHFO 211055
MTRITO
METAR PHTO 211053Z 23003KT 5SM -RA BR FEW004 BKN010 OVC013 23/23
A2999 RMK AO2 SLP155 P0013 T02330228





000
SAHW31 PHFO 211040
MTRITO
SPECI PHTO 211039Z 16003KT 3SM -RA BR BKN009 OVC013 23/23 A3000 RMK
AO2 P0012 T02330228





000
SAHW31 PHFO 211040
MTRITO
SPECI PHTO 211039Z 16003KT 3SM -RA BR BKN009 OVC013 23/23 A3000 RMK
AO2 P0012 T02330228




000
SAHW31 PHFO 211013
MTRITO
SPECI PHTO 211012Z 00000KT 2 1/2SM -RA BR BKN012 OVC018 24/23 A3000
RMK AO2 P0005 T02390228




000
SAHW31 PHFO 211013
MTRITO
SPECI PHTO 211012Z 00000KT 2 1/2SM -RA BR BKN012 OVC018 24/23 A3000
RMK AO2 P0005 T02390228





000
SAHW31 PHFO 210954
MTRITO
METAR PHTO 210953Z AUTO 00000KT 2 1/2SM RA BR OVC016 23/23 A3000 RMK
AO2 SLP158 P0056 T02330228 403000206 TSNO




000
SAHW31 PHFO 210954
MTRITO
METAR PHTO 210953Z AUTO 00000KT 2 1/2SM RA BR OVC016 23/23 A3000 RMK
AO2 SLP158 P0056 T02330228 403000206 TSNO





000
SAHW31 PHFO 210922
MTRITO
SPECI PHTO 210921Z AUTO 28005KT 1 3/4SM +RA BR FEW003 OVC012 23/23
A3000 RMK AO2 P0024 T02330228 TSNO





000
SAHW31 PHFO 210922
MTRITO
SPECI PHTO 210921Z AUTO 28005KT 1 3/4SM +RA BR FEW003 OVC012 23/23
A3000 RMK AO2 P0024 T02330228 TSNO




000
SAHW31 PHFO 210901
MTRITO
SPECI PHTO 210901Z AUTO 00000KT 2 1/2SM +RA BR FEW003 OVC012 23/23
A3001 RMK AO2 P0008 T02330228 TSNO




000
SAHW31 PHFO 210854
MTRITO
METAR PHTO 210853Z AUTO 00000KT 1 3/4SM +RA BR SCT003 OVC014 23/23
A3001 RMK AO2 SLP161 P0058 60090 T02330228 50002 TSNO





000
SAHW31 PHFO 210854
MTRITO
METAR PHTO 210853Z AUTO 00000KT 1 3/4SM +RA BR SCT003 OVC014 23/23
A3001 RMK AO2 SLP161 P0058 60090 T02330228 50002 TSNO




000
SAHW31 PHFO 210850
MTRITO
SPECI PHTO 210849Z AUTO 00000KT 1 3/4SM +RA BR FEW003 OVC014 23/23
A3001 RMK AO2 P0054 TSNO





000
SAHW31 PHFO 210850
MTRITO
SPECI PHTO 210849Z AUTO 00000KT 1 3/4SM +RA BR FEW003 OVC014 23/23
A3001 RMK AO2 P0054 TSNO




000
SAHW31 PHFO 210840
MTRITO
SPECI PHTO 210839Z AUTO 28003KT 2SM +RA BR FEW009 OVC014 23/23 A3001
RMK AO2 P0045 T02330228 TSNO




000
SAHW31 PHFO 210840
MTRITO
SPECI PHTO 210839Z AUTO 28003KT 2SM +RA BR FEW009 OVC014 23/23 A3001
RMK AO2 P0045 T02330228 TSNO





000
SAHW31 PHFO 210814
MTRITO
SPECI PHTO 210813Z AUTO 24005KT 1 1/2SM +RA BR FEW005 BKN010 OVC015
24/23 A3001 RMK AO2 P0016 T02440228 TSNO




000
SAHW31 PHFO 210814
MTRITO
SPECI PHTO 210813Z AUTO 24005KT 1 1/2SM +RA BR FEW005 BKN010 OVC015
24/23 A3001 RMK AO2 P0016 T02440228 TSNO





000
SAHW31 PHFO 210806
MTRITO
SPECI PHTO 210804Z AUTO 06005KT 2 1/2SM +RA BR SCT005 OVC012 23/23
A3001 RMK AO2 P0002 T02330228 TSNO





000
SAHW31 PHFO 210806
MTRITO
SPECI PHTO 210804Z AUTO 06005KT 2 1/2SM +RA BR SCT005 OVC012 23/23
A3001 RMK AO2 P0002 T02330228 TSNO




000
SAHW31 PHFO 210754
MTRITO
METAR PHTO 210753Z 23003KT 4SM -RA BR BKN012 OVC019 23/22 A3001 RMK
AO2 SLP159 P0019 T02330222





000
SAHW31 PHFO 210754
MTRITO
METAR PHTO 210753Z 23003KT 4SM -RA BR BKN012 OVC019 23/22 A3001 RMK
AO2 SLP159 P0019 T02330222




000
SAHW31 PHFO 210726
MTRITO
SPECI PHTO 210724Z 25006KT 3SM RA BR SCT007 OVC014 23/23 A3000 RMK
AO2 P0009 T02330228




000
SAHW31 PHFO 210726
MTRITO
SPECI PHTO 210724Z 25006KT 3SM RA BR SCT007 OVC014 23/23 A3000 RMK
AO2 P0009 T02330228





000
SAHW31 PHFO 210717
MTRITO
SPECI PHTO 210716Z 29005KT 2 1/2SM RA BR BKN007 OVC012 23/23 A3000
RMK AO2 CIG 004V008 P0005 T02330228




000
SAHW31 PHFO 210717
MTRITO
SPECI PHTO 210716Z 29005KT 2 1/2SM RA BR BKN007 OVC012 23/23 A3000
RMK AO2 CIG 004V008 P0005 T02330228





000
SAHW31 PHFO 210654
MTRITO
METAR PHTO 210653Z 29006KT 4SM RA BR BKN006 OVC015 24/23 A3000 RMK
AO2 RAB0555E05B27 SLP156 P0013 T02390228




000
SAHW31 PHFO 210651
MTRITO
SPECI PHTO 210650Z 30008KT 3SM RA BR BKN006 BKN010 OVC015 24/23
A2999 RMK AO2 RAB0555E05B27 P0012





000
SAHW31 PHFO 210644
MTRITO
SPECI PHTO 210643Z 30006KT 3SM RA BR FEW008 OVC017 24/23 A2999 RMK
AO2 RAB0555E05B27 P0009 T02440233




000
SAHW31 PHFO 210644
MTRITO
SPECI PHTO 210643Z 30006KT 3SM RA BR FEW008 OVC017 24/23 A2999 RMK
AO2 RAB0555E05B27 P0009 T02440233





000
SAHW31 PHFO 210640
MTRITO
SPECI PHTO 210638Z 33003KT 2 1/2SM RA BR FEW010 BKN017 OVC027 24/23
A2999 RMK AO2 RAB0555E05B27 P0008 T02440233




000
SAHW31 PHFO 210640
MTRITO
SPECI PHTO 210638Z 33003KT 2 1/2SM RA BR FEW010 BKN017 OVC027 24/23
A2999 RMK AO2 RAB0555E05B27 P0008 T02440233





000
SAHW31 PHFO 210614
MTRITO
SPECI PHTO 210613Z 36004KT 9SM SCT006 BKN022 OVC049 25/24 A2998 RMK
AO2 RAB0555E05 P0000 T02500239





000
SAHW31 PHFO 210614
MTRITO
SPECI PHTO 210613Z 36004KT 9SM SCT006 BKN022 OVC049 25/24 A2998 RMK
AO2 RAB0555E05 P0000 T02500239




000
SAHW31 PHFO 210554
MTRITO
METAR PHTO 210553Z 01006KT 8SM BKN009 BKN022 OVC031 25/24 A2998 RMK
AO2 SLP150 60002 T02500239 10294 20244 51008





000
SAHW31 PHFO 210554
MTRITO
METAR PHTO 210553Z 01006KT 8SM BKN009 BKN022 OVC031 25/24 A2998 RMK
AO2 SLP150 60002 T02500239 10294 20244 51008




000
SAHW31 PHFO 210551
MTRITO
SPECI PHTO 210549Z 02007KT 10SM FEW006 BKN009 OVC022 25/24 A2998 RMK
AO2




000
SAHW31 PHFO 210551
MTRITO
SPECI PHTO 210549Z 02007KT 10SM FEW006 BKN009 OVC022 25/24 A2998 RMK
AO2





000
SAHW31 PHFO 210542
MTRITO
SPECI PHTO 210541Z 01006KT 10SM SCT009 BKN020 OVC042 25/23 A2998 RMK
AO2 T02500233




000
SAHW31 PHFO 210542
MTRITO
SPECI PHTO 210541Z 01006KT 10SM SCT009 BKN020 OVC042 25/23 A2998 RMK
AO2 T02500233





000
SAHW31 PHFO 210511
MTRITO
SPECI PHTO 210510Z 05006KT 10SM BKN008 OVC019 24/23 A2997 RMK AO2
T02440233





000
SAHW31 PHFO 210454
MTRITO
METAR PHTO 210453Z 04006KT 8SM SCT007 BKN020 OVC036 25/23 A2997 RMK
AO2 RAB39E52 SLP146 P0000 T02500233




000
SAHW31 PHFO 210454
MTRITO
METAR PHTO 210453Z 04006KT 8SM SCT007 BKN020 OVC036 25/23 A2997 RMK
AO2 RAB39E52 SLP146 P0000 T02500233





000
SAHW31 PHFO 210448
MTRITO
SPECI PHTO 210446Z 05008KT 2 1/2SM -RA BR FEW007 BKN020 OVC042 25/23
A2997 RMK AO2 SFC VIS 4 RAB39 P0000 T02500233




000
SAHW31 PHFO 210448
MTRITO
SPECI PHTO 210446Z 05008KT 2 1/2SM -RA BR FEW007 BKN020 OVC042 25/23
A2997 RMK AO2 SFC VIS 4 RAB39 P0000 T02500233





000
SAHW31 PHFO 210440
MTRITO
SPECI PHTO 210439Z 06012G17KT 2 1/2SM -RA BR SCT007 SCT026 OVC038
25/23 A2996 RMK AO2 SFC VIS 4 RAB39 P0000 T02500233




000
SAHW31 PHFO 210440
MTRITO
SPECI PHTO 210439Z 06012G17KT 2 1/2SM -RA BR SCT007 SCT026 OVC038
25/23 A2996 RMK AO2 SFC VIS 4 RAB39 P0000 T02500233





000
SAHW31 PHFO 210428
MTRITO
SPECI PHTO 210427Z 05010KT 10SM FEW009 BKN026 OVC040 25/23 A2996 RMK
AO2 T02500233




000
SAHW31 PHFO 210428
MTRITO
SPECI PHTO 210427Z 05010KT 10SM FEW009 BKN026 OVC040 25/23 A2996 RMK
AO2 T02500233





000
SAHW31 PHFO 210402
MTRITO
SPECI PHTO 210401Z 07011KT 10SM FEW014 BKN026 OVC043 26/23 A2996 RMK
AO2 T02560228





000
SAHW31 PHFO 210402
MTRITO
SPECI PHTO 210401Z 07011KT 10SM FEW014 BKN026 OVC043 26/23 A2996 RMK
AO2 T02560228




000
SAHW31 PHFO 210354
MTRITO
METAR PHTO 210353Z 07010KT 10SM SCT016 BKN030 OVC041 26/23 A2995 RMK
AO2 RAE04B44E53 SLP142 P0000 T02560228





000
SAHW31 PHFO 210354
MTRITO
METAR PHTO 210353Z 07010KT 10SM SCT016 BKN030 OVC041 26/23 A2995 RMK
AO2 RAE04B44E53 SLP142 P0000 T02560228




000
SAHW31 PHFO 210306
MTRITO
SPECI PHTO 210305Z 07010KT 10SM FEW016 BKN034 OVC050 26/23 A2995 RMK
AO2 RAE04 P0000 T02610233




000
SAHW31 PHFO 210306
MTRITO
SPECI PHTO 210305Z 07010KT 10SM FEW016 BKN034 OVC050 26/23 A2995 RMK
AO2 RAE04 P0000 T02610233





000
SAHW31 PHFO 210255
MTRITO
METAR PHTO 210253Z 07010KT 8SM -RA SCT018 BKN029 OVC034 27/23 A2995
RMK AO2 RAB48 SLP140 P0000 60002 T02670233 55003





000
SAHW31 PHFO 210255
MTRITO
METAR PHTO 210253Z 07010KT 8SM -RA SCT018 BKN029 OVC034 27/23 A2995
RMK AO2 RAB48 SLP140 P0000 60002 T02670233 55003




000
SAHW31 PHFO 210246
MTRITO
SPECI PHTO 210245Z 06011KT 10SM SCT018 BKN025 OVC034 27/23 A2995 RMK
AO2 T02670228




000
SAHW31 PHFO 210246
MTRITO
SPECI PHTO 210245Z 06011KT 10SM SCT018 BKN025 OVC034 27/23 A2995 RMK
AO2 T02670228





000
SAHW31 PHFO 210154
MTRITO
METAR PHTO 210153Z 07005KT 10SM FEW016 BKN035 OVC044 27/23 A2994 RMK
AO2 RAB06E49 SLP138 P0002 T02670233





000
SAHW31 PHFO 210154
MTRITO
METAR PHTO 210153Z 07005KT 10SM FEW016 BKN035 OVC044 27/23 A2994 RMK
AO2 RAB06E49 SLP138 P0002 T02670233




000
SAHW31 PHFO 210134
MTRITO
SPECI PHTO 210133Z 05006KT 8SM -RA BKN016 OVC030 26/23 A2994 RMK AO2
RAB06 P0001 T02560233





000
SAHW31 PHFO 210134
MTRITO
SPECI PHTO 210133Z 05006KT 8SM -RA BKN016 OVC030 26/23 A2994 RMK AO2
RAB06 P0001 T02560233




000
SAHW31 PHFO 210054
MTRITO
METAR PHTO 210053Z 07014KT 10SM FEW020 FEW049 BKN060 29/22 A2995 RMK
AO2 SLP139 T02890222





000
SAHW31 PHFO 210054
MTRITO
METAR PHTO 210053Z 07014KT 10SM FEW020 FEW049 BKN060 29/22 A2995 RMK
AO2 SLP139 T02890222




000
SAHW31 PHFO 210044
MTRITO
SPECI PHTO 210042Z 06014KT 10SM FEW020 SCT025 BKN060 28/23 A2995 RMK
AO2 T02830228




000
SAHW31 PHFO 210044
MTRITO
SPECI PHTO 210042Z 06014KT 10SM FEW020 SCT025 BKN060 28/23 A2995 RMK
AO2 T02830228





000
SAHW31 PHFO 210027
MTRITO
SPECI PHTO 210025Z 05012KT 10SM BKN022 BKN035 BKN060 29/23 A2995 RMK
AO2 T02890228





000
SAHW31 PHFO 210027
MTRITO
SPECI PHTO 210025Z 05012KT 10SM BKN022 BKN035 BKN060 29/23 A2995 RMK
AO2 T02890228




000
SAHW31 PHFO 202354
MTRITO
METAR PHTO 202353Z 06011KT 10SM FEW025 SCT031 BKN038 28/23 A2996 RMK
AO2 SLP143 T02780228 10300 20256 56016




000
SAHW31 PHFO 202354
MTRITO
METAR PHTO 202353Z 06011KT 10SM FEW025 SCT031 BKN038 28/23 A2996 RMK
AO2 SLP143 T02780228 10300 20256 56016





000
SAHW31 PHFO 202254
MTRITO
METAR PHTO 202253Z 06010KT 10SM FEW026 BKN033 29/22 A2997 RMK AO2
SLP148 T02940217





000
SAHW31 PHFO 202254
MTRITO
METAR PHTO 202253Z 06010KT 10SM FEW026 BKN033 29/22 A2997 RMK AO2
SLP148 T02940217




000
SAHW31 PHFO 202244
MTRITO
SPECI PHTO 202242Z 07009KT 10SM FEW027 BKN034 29/22 A2998 RMK AO2
T02940222




000
SAHW31 PHFO 202154
MTRITO
METAR PHTO 202153Z 06010KT 10SM BKN027 29/22 A2999 RMK AO2 SLP153
T02940222




000
SAHW31 PHFO 202154
MTRITO
METAR PHTO 202153Z 06010KT 10SM BKN027 29/22 A2999 RMK AO2 SLP153
T02940222





000
SAHW31 PHFO 202054
MTRITO
METAR PHTO 202053Z 04009KT 10SM SCT027 28/22 A3000 RMK AO2 SLP159
T02830217 50003





000
SAHW31 PHFO 202054
MTRITO
METAR PHTO 202053Z 04009KT 10SM SCT027 28/22 A3000 RMK AO2 SLP159
T02830217 50003




000
SAHW31 PHFO 201954
MTRITO
METAR PHTO 201953Z 07008KT 10SM FEW026 29/21 A3001 RMK AO2 SLP160
T02890211





000
SAHW31 PHFO 201954
MTRITO
METAR PHTO 201953Z 07008KT 10SM FEW026 29/21 A3001 RMK AO2 SLP160
T02890211




000
SAHW31 PHFO 201854
MTRITO
METAR PHTO 201853Z 09004KT 10SM FEW025 FEW120 28/21 A3000 RMK AO2
SLP158 T02780211





000
SAHW31 PHFO 201854
MTRITO
METAR PHTO 201853Z 09004KT 10SM FEW025 FEW120 28/21 A3000 RMK AO2
SLP158 T02780211




000
SAHW31 PHFO 201755
MTRITO
METAR PHTO 201753Z 24004KT 10SM FEW025 SCT055 26/18 A3000 RMK AO2
SLP156 T02560178 10256 20206 51014




000
SAHW31 PHFO 201755
MTRITO
METAR PHTO 201753Z 24004KT 10SM FEW025 SCT055 26/18 A3000 RMK AO2
SLP156 T02560178 10256 20206 51014





000
SAHW31 PHFO 201654
MTRITO
METAR PHTO 201653Z 24007KT 10SM FEW025 SCT055 22/16 A2999 RMK AO2
SLP153 T02170161




000
SAHW31 PHFO 201654
MTRITO
METAR PHTO 201653Z 24007KT 10SM FEW025 SCT055 22/16 A2999 RMK AO2
SLP153 T02170161





000
SAHW31 PHFO 201554
MTRITO
METAR PHTO 201553Z 23006KT 10SM SCT025 SCT055 21/16 A2997 RMK AO2
SLP146 T02060161




000
SAHW31 PHFO 201554
MTRITO
METAR PHTO 201553Z 23006KT 10SM SCT025 SCT055 21/16 A2997 RMK AO2
SLP146 T02060161





000
SAHW31 PHFO 201454
MTRITO
METAR PHTO 201453Z 22004KT 10SM CLR 21/17 A2996 RMK AO2 SLP142
T02110167 55003





000
SAHW31 PHFO 201454
MTRITO
METAR PHTO 201453Z 22004KT 10SM CLR 21/17 A2996 RMK AO2 SLP142
T02110167 55003




000
SAHW31 PHFO 201356
MTRITO
METAR PHTO 201353Z 23006KT 10SM FEW047 21/17 A2995 RMK AO2 SLP141
T02110172




000
SAHW31 PHFO 201356
MTRITO
METAR PHTO 201353Z 23006KT 10SM FEW047 21/17 A2995 RMK AO2 SLP141
T02110172





000
SAHW31 PHFO 201254
MTRITO
METAR PHTO 201253Z 25008KT 10SM SCT041 OVC050 22/18 A2995 RMK AO2
SLP140 T02220178





000
SAHW31 PHFO 201254
MTRITO
METAR PHTO 201253Z 25008KT 10SM SCT041 OVC050 22/18 A2995 RMK AO2
SLP140 T02220178




000
SAHW31 PHFO 201154
MTRITO
METAR PHTO 201153Z 21004KT 10SM FEW049 OVC060 22/19 A2997 RMK AO2
SLP145 60001 70022 T02220189 10250 20217 56014





000
SAHW31 PHFO 201154
MTRITO
METAR PHTO 201153Z 21004KT 10SM FEW049 OVC060 22/19 A2997 RMK AO2
SLP145 60001 70022 T02220189 10250 20217 56014




000
SAHW31 PHFO 201054
MTRITO
METAR PHTO 201053Z 23005KT 10SM BKN046 22/21 A2997 RMK AO2 RAE14
SLP148 P0000 T02220206




000
SAHW31 PHFO 201054
MTRITO
METAR PHTO 201053Z 23005KT 10SM BKN046 22/21 A2997 RMK AO2 RAE14
SLP148 P0000 T02220206





000
SAHW31 PHFO 200954
MTRITO
METAR PHTO 200953Z AUTO 20006KT 5SM -RA BR FEW024 BKN046 OVC060
22/20 A3000 RMK AO2 RAB38 SLP157 P0001 T02220200 402940206 TSNO





000
SAHW31 PHFO 200854
MTRITO
METAR PHTO 200853Z AUTO 26005KT 10SM FEW027 23/20 A3001 RMK AO2
SLP159 T02280200 51015 TSNO




000
SAHW31 PHFO 200854
MTRITO
METAR PHTO 200853Z AUTO 26005KT 10SM FEW027 23/20 A3001 RMK AO2
SLP159 T02280200 51015 TSNO





000
SAHW31 PHFO 200840
MTRITO
SPECI PHTO 200839Z AUTO 27005KT 10SM FEW026 SCT070 23/19 A3001 RMK
AO2 T02330194 TSNO





000
SAHW31 PHFO 200840
MTRITO
SPECI PHTO 200839Z AUTO 27005KT 10SM FEW026 SCT070 23/19 A3001 RMK
AO2 T02330194 TSNO




000
SAHW31 PHFO 200833
MTRITO
SPECI PHTO 200832Z AUTO 30005KT 10SM BKN027 BKN065 BKN075 23/19
A3001 RMK AO2 T02330194 TSNO





000
SAHW31 PHFO 200833
MTRITO
SPECI PHTO 200832Z AUTO 30005KT 10SM BKN027 BKN065 BKN075 23/19
A3001 RMK AO2 T02330194 TSNO




000
SAHW31 PHFO 200754
MTRITO
METAR PHTO 200753Z 23005KT 10SM FEW027 BKN060 OVC070 23/20 A3000 RMK
AO2 SLP158 T02280200




000
SAHW31 PHFO 200654
MTRITO
METAR PHTO 200653Z 23004KT 10SM FEW027 23/21 A2999 RMK AO2 SLP152
T02330206




000
SAHW31 PHFO 200654
MTRITO
METAR PHTO 200653Z 23004KT 10SM FEW027 23/21 A2999 RMK AO2 SLP152
T02330206





000
SAHW31 PHFO 200554
MTRITO
METAR PHTO 200553Z 00000KT 10SM SCT026 SCT034 BKN041 25/22 A2996 RMK
AO2 RAB04E18 SLP145 P0002 60002 T02500217 10289 20244 53014




000
SAHW31 PHFO 200554
MTRITO
METAR PHTO 200553Z 00000KT 10SM SCT026 SCT034 BKN041 25/22 A2996 RMK
AO2 RAB04E18 SLP145 P0002 60002 T02500217 10289 20244 53014





000
SAHW31 PHFO 200521
MTRITO
SPECI PHTO 200520Z 00000KT 10SM SCT025 SCT033 OVC047 25/21 A2995 RMK
AO2 RAB04E18 P0002 T02500211




000
SAHW31 PHFO 200521
MTRITO
SPECI PHTO 200520Z 00000KT 10SM SCT025 SCT033 OVC047 25/21 A2995 RMK
AO2 RAB04E18 P0002 T02500211





000
SAHW31 PHFO 200513
MTRITO
SPECI PHTO 200511Z VRB03KT 7SM -RA BKN025 BKN032 BKN060 25/21 A2995
RMK AO2 RAB04 P0002 T02500211




000
SAHW31 PHFO 200513
MTRITO
SPECI PHTO 200511Z VRB03KT 7SM -RA BKN025 BKN032 BKN060 25/21 A2995
RMK AO2 RAB04 P0002 T02500211





000
SAHW31 PHFO 200454
MTRITO
METAR PHTO 200453Z 05003KT 10SM SCT060 26/20 A2994 RMK AO2 SLP137
T02610200





000
SAHW31 PHFO 200454
MTRITO
METAR PHTO 200453Z 05003KT 10SM SCT060 26/20 A2994 RMK AO2 SLP137
T02610200




000
SAHW31 PHFO 200354
MTRITO
METAR PHTO 200353Z 06007KT 10SM FEW060 27/20 A2993 RMK AO2 SLP133
T02720200





000
SAHW31 PHFO 200254
MTRITO
METAR PHTO 200253Z 04007KT 10SM CLR 28/20 A2992 RMK AO2 SLP130
T02780200 56005




000
SAHW31 PHFO 200254
MTRITO
METAR PHTO 200253Z 04007KT 10SM CLR 28/20 A2992 RMK AO2 SLP130
T02780200 56005





000
SAHW31 PHFO 200154
MTRITO
METAR PHTO 200153Z 05008KT 10SM FEW026 SCT048 28/21 A2992 RMK AO2
SLP131 T02780206





000
SAHW31 PHFO 200154
MTRITO
METAR PHTO 200153Z 05008KT 10SM FEW026 SCT048 28/21 A2992 RMK AO2
SLP131 T02780206




000
SAHW31 PHFO 200054
MTRITO
METAR PHTO 200053Z 04010KT 10SM FEW025 29/21 A2992 RMK AO2 SLP132
T02890206





000
SAHW31 PHFO 200054
MTRITO
METAR PHTO 200053Z 04010KT 10SM FEW025 29/21 A2992 RMK AO2 SLP132
T02890206




000
SAHW31 PHFO 192354
MTRITO
METAR PHTO 192353Z 05011G15KT 10SM SCT025 29/21 A2993 RMK AO2 SLP135
T02890211 10294 20239 58016




000
SAHW31 PHFO 192354
MTRITO
METAR PHTO 192353Z 05011G15KT 10SM SCT025 29/21 A2993 RMK AO2 SLP135
T02890211 10294 20239 58016





000
SAHW31 PHFO 192254
MTRITO
METAR PHTO 192253Z COR 07008KT 10SM SCT025 29/21 A2995 RMK AO2
SLP141 T02890211





000
SAHW31 PHFO 192254
MTRITO
METAR PHTO 192253Z COR 07008KT 10SM SCT025 29/21 A2995 RMK AO2
SLP141 T02890211




000
SAHW31 PHFO 192154
MTRITO
METAR PHTO 192153Z 04009KT 10SM SCT025 29/21 A2997 RMK AO2 SLP147
T02890211





000
SAHW31 PHFO 192055
MTRITO
METAR PHTO 192053Z 36007KT 10SM FEW025 SCT070 28/21 A2998 RMK AO2
SLP151 T02830211 58002 $





000
SAHW31 PHFO 192055
MTRITO
METAR PHTO 192053Z 36007KT 10SM FEW025 SCT070 28/21 A2998 RMK AO2
SLP151 T02830211 58002 $




000
SAHW31 PHFO 191954
MTRITO
METAR PHTO 191953Z 34006KT 10SM FEW027 28/21 A2999 RMK AO2 SLP153
T02780211 $




000
SAHW31 PHFO 191954
MTRITO
METAR PHTO 191953Z 34006KT 10SM FEW027 28/21 A2999 RMK AO2 SLP153
T02780211 $





000
SAHW31 PHFO 191859
MTRITO
METAR PHTO 191853Z COR 33006KT 10SM SCT027 27/21 A2999 RMK AO2
SLP153 T02720206 $





000
SAHW31 PHFO 191854
MTRITO
METAR PHTO 191853Z 10SM SCT027 BKN050 27/21 A2999 RMK AO2 SLP153
T02720206 $




000
SAHW31 PHFO 191754
MTRITO
METAR PHTO 191753Z 00000KT 10SM SCT025 BKN050 24/21 A2999 RMK AO2
SLP153 60019 T02390206 10239 20206 53009




000
SAHW31 PHFO 191754
MTRITO
METAR PHTO 191753Z 00000KT 10SM SCT025 BKN050 24/21 A2999 RMK AO2
SLP153 60019 T02390206 10239 20206 53009





000
SAHW31 PHFO 191738
MTRITO
SPECI PHTO 191737Z 00000KT 10SM SCT028 BKN050 23/21 A2999 RMK AO2
T02330206





000
SAHW31 PHFO 191738
MTRITO
SPECI PHTO 191737Z 00000KT 10SM SCT028 BKN050 23/21 A2999 RMK AO2
T02330206




000
SAHW31 PHFO 191654
MTRITO
METAR PHTO 191653Z 23003KT 10SM BKN028 BKN035 22/20 A2998 RMK AO2
SLP150 T02170200




000
SAHW31 PHFO 191654
MTRITO
METAR PHTO 191653Z 23003KT 10SM BKN028 BKN035 22/20 A2998 RMK AO2
SLP150 T02170200





000
SAHW31 PHFO 191554
MTRITO
METAR PHTO 191553Z 22004KT 10SM SCT060 21/19 A2996 RMK AO2 RAB01E23
SLP145 P0003 T02060194





000
SAHW31 PHFO 191554
MTRITO
METAR PHTO 191553Z 22004KT 10SM SCT060 21/19 A2996 RMK AO2 RAB01E23
SLP145 P0003 T02060194




000
SAHW31 PHFO 191454
MTRITO
METAR PHTO 191453Z 24004KT 10SM FEW025 BKN050 21/19 A2996 RMK AO2
SLP144 60016 T02110194 56008




000
SAHW31 PHFO 191454
MTRITO
METAR PHTO 191453Z 24004KT 10SM FEW025 BKN050 21/19 A2996 RMK AO2
SLP144 60016 T02110194 56008





000
SAHW31 PHFO 191354
MTRITO
METAR PHTO 191353Z 25005KT 10SM BKN025 BKN031 OVC070 22/20 A2996 RMK
AO2 RAE13 SLP145 P0007 T02170200




000
SAHW31 PHFO 191354
MTRITO
METAR PHTO 191353Z 25005KT 10SM BKN025 BKN031 OVC070 22/20 A2996 RMK
AO2 RAE13 SLP145 P0007 T02170200





000
SAHW31 PHFO 191302
MTRITO
SPECI PHTO 191301Z 26007KT 3SM RA BR FEW025 BKN029 OVC036 22/21
A2997 RMK AO2 P0006 T02170206




000
SAHW31 PHFO 191302
MTRITO
SPECI PHTO 191301Z 26007KT 3SM RA BR FEW025 BKN029 OVC036 22/21
A2997 RMK AO2 P0006 T02170206





000
SAHW31 PHFO 191254
MTRITO
METAR PHTO 191253Z 27005KT 2 1/2SM +RA BR SCT022 BKN027 OVC040 21/20
A2997 RMK AO2 RAE21B42 SLP148 P0009 T02110200





000
SAHW31 PHFO 191254
MTRITO
METAR PHTO 191253Z 27005KT 2 1/2SM +RA BR SCT022 BKN027 OVC040 21/20
A2997 RMK AO2 RAE21B42 SLP148 P0009 T02110200




000
SAHW31 PHFO 191230
MTRITO
SPECI PHTO 191228Z 23004KT 10SM BKN024 BKN034 OVC075 21/20 A2997 RMK
AO2 RAE21 P0005 T02110200





000
SAHW31 PHFO 191230
MTRITO
SPECI PHTO 191228Z 23004KT 10SM BKN024 BKN034 OVC075 21/20 A2997 RMK
AO2 RAE21 P0005 T02110200




000
SAHW31 PHFO 191154
MTRITO
METAR PHTO 191153Z 20004KT 7SM -RA FEW030 BKN047 OVC065 22/20 A2999
RMK AO2 RAB43 SLP152 P0000 60007 70022 T02220200 10250 20217 58015





000
SAHW31 PHFO 191054
MTRITO
METAR PHTO 191053Z 24005KT 10SM FEW026 22/19 A3000 RMK AO2 SLP158
T02170194




000
SAHW31 PHFO 191054
MTRITO
METAR PHTO 191053Z 24005KT 10SM FEW026 22/19 A3000 RMK AO2 SLP158
T02170194





000
SAHW31 PHFO 190954
MTRITO
METAR PHTO 190953Z AUTO 23005KT 10SM FEW027 SCT044 SCT050 22/21
A3002 RMK AO2 RAE0856 SLP165 P0000 T02220206 403000217 TSNO




000
SAHW31 PHFO 190954
MTRITO
METAR PHTO 190953Z AUTO 23005KT 10SM FEW027 SCT044 SCT050 22/21
A3002 RMK AO2 RAE0856 SLP165 P0000 T02220206 403000217 TSNO





000
SAHW31 PHFO 190917
MTRITO
SPECI PHTO 190916Z AUTO 24006KT 10SM BKN028 BKN037 BKN065 23/21
A3003 RMK AO2 RAE0856 P0000 T02280211 TSNO




000
SAHW31 PHFO 190917
MTRITO
SPECI PHTO 190916Z AUTO 24006KT 10SM BKN028 BKN037 BKN065 23/21
A3003 RMK AO2 RAE0856 P0000 T02280211 TSNO





000
SAHW31 PHFO 190854
MTRITO
METAR PHTO 190853Z AUTO 25006KT 10SM -RA SCT028 BKN044 OVC070 23/22
A3003 RMK AO2 RAE06B37 SLP168 P0005 60007 T02330217 50009 TSNO




000
SAHW31 PHFO 190854
MTRITO
METAR PHTO 190853Z AUTO 25006KT 10SM -RA SCT028 BKN044 OVC070 23/22
A3003 RMK AO2 RAE06B37 SLP168 P0005 60007 T02330217 50009 TSNO





000
SAHW31 PHFO 190828
MTRITO
SPECI PHTO 190827Z AUTO 28005KT 10SM SCT027 BKN033 BKN070 24/22
A3003 RMK AO2 RAE06 P0000 T02390222 TSNO




000
SAHW31 PHFO 190828
MTRITO
SPECI PHTO 190827Z AUTO 28005KT 10SM SCT027 BKN033 BKN070 24/22
A3003 RMK AO2 RAE06 P0000 T02390222 TSNO





000
SAHW31 PHFO 190809
MTRITO
SPECI PHTO 190808Z AUTO 30003KT 10SM BKN027 BKN035 OVC046 24/22
A3003 RMK AO2 RAE06 P0000 T02390222 TSNO





000
SAHW31 PHFO 190754
MTRITO
METAR PHTO 190753Z 00000KT 8SM -RA SCT025 BKN031 OVC060 24/22 A3003
RMK AO2 RAB39 SLP168 P0002 T02390217





000
SAHW31 PHFO 190654
MTRITO
METAR PHTO 190653Z 00000KT 10SM BKN026 25/20 A3002 RMK AO2 RAB18E32
SLP163 P0000 T02500200





000
SAHW31 PHFO 190654
MTRITO
METAR PHTO 190653Z 00000KT 10SM BKN026 25/20 A3002 RMK AO2 RAB18E32
SLP163 P0000 T02500200




000
SAHW31 PHFO 190646
MTRITO
SPECI PHTO 190645Z 31005KT 10SM BKN026 BKN060 25/21 A3002 RMK AO2
RAB18E32 P0000 T02500211





000
SAHW31 PHFO 190646
MTRITO
SPECI PHTO 190645Z 31005KT 10SM BKN026 BKN060 25/21 A3002 RMK AO2
RAB18E32 P0000 T02500211




    US Dept of Commerce
    National Oceanic and Atmospheric Administration
    National Weather Service
    1325 East West Highway
    Silver Spring, MD 20910
    Page Author: NWS Internet Services Team
Disclaimer
Information Quality
Credits
Glossary
Privacy Policy
Freedom of Information Act (FOIA)
About Us
Career Opportunities